createdAt,value
2019-05-07T00:02:26.368Z,91.22
2019-05-07T00:04:54.556Z,91.25
2019-05-07T00:07:22.733Z,91.44
2019-05-07T00:09:52.561Z,91.22
2019-05-07T00:12:22.888Z,91.51
2019-05-07T00:14:59.075Z,91.37
2019-05-07T00:17:22.826Z,91.71
2019-05-07T00:19:52.570Z,91.25
2019-05-07T00:22:22.679Z,91.28
2019-05-07T00:24:52.163Z,91.18
2019-05-07T00:27:22.627Z,91.36
2019-05-07T00:29:52.100Z,91.49
2019-05-07T00:32:22.168Z,91.40
2019-05-07T00:34:54.289Z,91.52
2019-05-07T00:37:40.036Z,91.07
2019-05-07T00:40:18.827Z,91.34
2019-05-07T00:42:48.637Z,91.64
2019-05-07T00:45:23.739Z,91.39
2019-05-07T00:47:52.122Z,91.67
2019-05-07T00:50:22.556Z,91.72
2019-05-07T00:52:52.400Z,91.95
2019-05-07T00:55:22.661Z,91.82
2019-05-07T00:57:52.626Z,92.25
2019-05-07T01:00:22.324Z,92.50
2019-05-07T01:02:52.495Z,91.95
2019-05-07T01:05:23.099Z,92.39
2019-05-07T01:07:52.948Z,92.24
2019-05-07T01:10:22.261Z,92.48
2019-05-07T01:12:52.986Z,92.49
2019-05-07T01:15:28.844Z,92.34
2019-05-07T01:17:52.083Z,92.65
2019-05-07T01:20:22.115Z,92.54
2019-05-07T01:22:54.114Z,92.12
2019-05-07T01:25:22.054Z,92.66
2019-05-07T01:27:50.432Z,93.48
2019-05-07T01:30:18.637Z,93.56
2019-05-07T01:32:53.123Z,93.95
2019-05-07T01:35:25.485Z,93.64
2019-05-07T01:37:53.966Z,93.77
2019-05-07T01:40:22.786Z,93.89
2019-05-07T01:42:52.948Z,93.63
2019-05-07T01:45:22.029Z,93.81
2019-05-07T01:47:53.086Z,93.94
2019-05-07T01:50:22.679Z,93.80
2019-05-07T01:52:52.269Z,93.58
2019-05-07T01:55:22.583Z,93.32
2019-05-07T01:57:52.270Z,93.52
2019-05-07T02:00:22.448Z,93.62
2019-05-07T02:02:58.291Z,93.77
2019-05-07T02:05:32.603Z,93.83
2019-05-07T02:08:03.103Z,93.40
2019-05-07T02:10:32.941Z,93.46
2019-05-07T02:13:02.279Z,93.79
2019-05-07T02:15:32.314Z,93.81
2019-05-07T02:18:01.967Z,94.08
2019-05-07T02:20:32.208Z,94.01
2019-05-07T02:23:02.588Z,93.86
2019-05-07T02:25:32.533Z,94.06
2019-05-07T02:28:02.209Z,93.92
2019-05-07T02:30:30.242Z,92.92
2019-05-07T02:32:58.434Z,93.30
2019-05-07T02:35:26.636Z,93.68
2019-05-07T02:38:02.906Z,93.98
2019-05-07T02:40:34.211Z,93.86
2019-05-07T02:43:03.054Z,94.27
2019-05-07T02:45:48.316Z,94.23
2019-05-07T02:48:18.149Z,93.96
2019-05-07T02:50:47.991Z,94.04
2019-05-07T02:53:23.892Z,94.37
2019-05-07T02:55:54.117Z,94.04
2019-05-07T02:58:24.007Z,93.80
2019-05-07T03:00:53.300Z,93.68
2019-05-07T03:03:24.522Z,93.40
2019-05-07T03:05:53.662Z,93.76
2019-05-07T03:08:26.595Z,93.79
2019-05-07T03:10:52.724Z,93.67
2019-05-07T03:13:23.542Z,93.92
2019-05-07T03:15:54.048Z,93.62
2019-05-07T03:18:23.285Z,93.65
2019-05-07T03:20:53.616Z,93.53
2019-05-07T03:23:23.522Z,93.34
2019-05-07T03:25:59.169Z,93.57
2019-05-07T03:28:27.614Z,94.03
2019-05-07T03:30:57.536Z,94.41
2019-05-07T03:33:39.662Z,94.01
2019-05-07T03:36:09.123Z,94.31
2019-05-07T03:38:37.324Z,94.34
2019-05-07T03:41:05.510Z,94.50
2019-05-07T03:43:34.076Z,94.17
2019-05-07T03:46:03.933Z,94.39
2019-05-07T03:48:34.019Z,94.35
2019-05-07T03:51:03.623Z,93.66
2019-05-07T03:53:33.832Z,93.68
2019-05-07T03:56:04.027Z,93.86
2019-05-07T03:58:34.009Z,93.91
2019-05-07T04:01:04.356Z,93.40
2019-05-07T04:03:34.051Z,93.47
2019-05-07T04:06:03.914Z,93.91
2019-05-07T04:08:33.492Z,93.85
2019-05-07T04:11:03.576Z,93.96
2019-05-07T04:13:33.419Z,94.21
2019-05-07T04:16:04.082Z,94.13
2019-05-07T04:18:33.002Z,94.31
2019-05-07T04:21:03.788Z,94.50
2019-05-07T04:23:34.161Z,94.47
2019-05-07T04:26:23.140Z,94.41
2019-05-07T04:29:06.135Z,94.67
2019-05-07T04:31:36.319Z,94.81
2019-05-07T04:34:06.156Z,94.77
2019-05-07T04:36:35.423Z,94.47
2019-05-07T04:39:05.201Z,94.31
2019-05-07T04:41:33.393Z,94.21
2019-05-07T04:44:03.557Z,94.31
2019-05-07T04:46:33.291Z,94.28
2019-05-07T04:49:03.767Z,94.58
2019-05-07T04:51:36.537Z,94.56
2019-05-07T04:54:04.751Z,94.49
2019-05-07T04:56:33.691Z,94.74
2019-05-07T04:59:03.622Z,94.57
2019-05-07T05:01:34.030Z,94.63
2019-05-07T05:04:20.628Z,94.71
2019-05-07T05:06:33.031Z,94.67
2019-05-07T05:09:02.946Z,94.74
2019-05-07T05:11:33.598Z,94.62
2019-05-07T05:14:02.819Z,94.69
2019-05-07T05:16:32.736Z,94.51
2019-05-07T05:19:02.495Z,94.59
2019-05-07T05:21:42.067Z,94.56
2019-05-07T05:24:14.823Z,94.61
2019-05-07T05:26:43.302Z,94.48
2019-05-07T05:29:12.221Z,94.13
2019-05-07T05:31:42.128Z,92.83
2019-05-07T05:34:12.846Z,91.95
2019-05-07T05:36:42.511Z,90.96
2019-05-07T05:39:12.931Z,91.60
2019-05-07T05:41:42.316Z,90.45
2019-05-07T05:44:12.403Z,89.07
2019-05-07T05:46:42.721Z,88.18
2019-05-07T05:49:11.861Z,87.26
2019-05-07T05:51:43.023Z,86.44
2019-05-07T05:54:15.581Z,86.28
2019-05-07T05:56:57.589Z,87.91
2019-05-07T05:59:46.875Z,87.04
2019-05-07T06:02:19.831Z,87.36
2019-05-07T06:05:05.884Z,87.39
2019-05-07T06:07:38.374Z,86.89
2019-05-07T06:10:12.884Z,87.03
2019-05-07T06:12:45.480Z,87.52
2019-05-07T06:15:22.243Z,86.96
2019-05-07T06:18:18.799Z,87.34
2019-05-07T06:20:42.881Z,86.37
2019-05-07T06:23:29.254Z,85.64
2019-05-07T06:25:57.433Z,84.84
2019-05-07T06:28:25.624Z,84.66
2019-05-07T06:30:53.821Z,83.83
2019-05-07T06:33:22.938Z,83.16
2019-05-07T06:35:52.058Z,82.54
2019-05-07T06:38:21.992Z,80.80
2019-05-07T06:41:08.821Z,80.10
2019-05-07T06:43:42.228Z,79.68
2019-05-07T06:46:12.525Z,79.07
2019-05-07T06:48:45.235Z,78.56
2019-05-07T06:51:12.427Z,75.60
2019-05-07T06:53:42.237Z,76.85
2019-05-07T06:56:12.238Z,77.01
2019-05-07T06:58:44.991Z,75.82
2019-05-07T07:01:17.486Z,75.16
2019-05-07T07:03:59.516Z,72.89
2019-05-07T07:06:32.060Z,71.12
2019-05-07T07:09:02.001Z,69.35
2019-05-07T07:11:32.053Z,71.69
2019-05-07T07:14:02.500Z,72.03
2019-05-07T07:16:32.432Z,70.65
2019-05-07T07:19:00.390Z,71.38
2019-05-07T07:21:28.581Z,69.21
2019-05-07T07:23:56.764Z,67.50
2019-05-07T07:26:24.954Z,69.89
2019-05-07T07:28:53.127Z,69.44
2019-05-07T07:31:42.580Z,67.22
2019-05-07T07:34:12.955Z,64.14
2019-05-07T07:36:45.320Z,66.23
2019-05-07T07:39:13.500Z,62.91
2019-05-07T07:41:55.413Z,62.18
2019-05-07T07:44:23.587Z,65.03
2019-05-07T07:46:53.173Z,61.05
2019-05-07T07:49:22.352Z,63.47
2019-05-07T07:51:52.562Z,63.56
2019-05-07T07:54:22.650Z,64.77
2019-05-07T07:56:55.713Z,63.67
2019-05-07T07:59:27.395Z,59.04
2019-05-07T08:02:15.601Z,61.91
2019-05-07T08:04:43.772Z,59.87
2019-05-07T08:07:12.512Z,62.11
2019-05-07T08:09:42.742Z,61.85
2019-05-07T08:12:12.721Z,59.79
2019-05-07T08:14:42.720Z,57.68
2019-05-07T08:17:12.785Z,58.97
2019-05-07T08:19:42.773Z,59.76
2019-05-07T08:22:12.067Z,62.03
2019-05-07T08:24:42.409Z,62.36
2019-05-07T08:27:12.811Z,63.16
2019-05-07T08:29:42.805Z,63.06
2019-05-07T08:32:18.030Z,61.29
2019-05-07T08:34:54.163Z,58.44
2019-05-07T08:37:24.477Z,58.52
2019-05-07T08:39:52.251Z,62.27
2019-05-07T08:42:22.660Z,58.41
2019-05-07T08:45:08.540Z,55.11
2019-05-07T08:47:42.554Z,55.83
2019-05-07T08:50:11.823Z,58.33
2019-05-07T08:52:41.965Z,58.03
2019-05-07T08:55:12.415Z,57.62
2019-05-07T08:57:42.031Z,54.14
2019-05-07T09:00:12.376Z,57.43
2019-05-07T09:02:42.039Z,56.88
2019-05-07T09:05:12.087Z,53.65
2019-05-07T09:07:42.552Z,50.87
2019-05-07T09:10:12.626Z,52.29
2019-05-07T09:12:42.955Z,52.16
2019-05-07T09:15:12.453Z,52.87
2019-05-07T09:17:42.290Z,49.06
2019-05-07T09:20:12.524Z,50.43
2019-05-07T09:22:42.724Z,49.75
2019-05-07T09:25:12.932Z,48.03
2019-05-07T09:27:42.974Z,50.01
2019-05-07T09:30:13.094Z,49.11
2019-05-07T09:32:52.380Z,47.39
2019-05-07T09:35:27.975Z,48.22
2019-05-07T09:37:56.150Z,46.71
2019-05-07T09:40:24.624Z,47.13
2019-05-07T09:42:53.114Z,49.49
2019-05-07T09:45:22.518Z,49.71
2019-05-07T09:47:52.261Z,51.83
2019-05-07T09:50:22.019Z,51.68
2019-05-07T09:52:51.836Z,50.29
2019-05-07T09:55:20.176Z,46.80
2019-05-07T09:57:48.365Z,47.73
2019-05-07T10:00:16.556Z,46.09
2019-05-07T10:02:44.735Z,48.05
2019-05-07T10:05:14.011Z,47.61
2019-05-07T10:07:42.540Z,46.09
2019-05-07T10:10:11.930Z,46.73
2019-05-07T10:12:42.367Z,47.18
2019-05-07T10:15:12.315Z,46.41
2019-05-07T10:17:45.584Z,46.74
2019-05-07T10:20:21.686Z,45.31
2019-05-07T10:22:44.388Z,45.24
2019-05-07T10:25:12.872Z,46.00
2019-05-07T10:27:41.878Z,45.81
2019-05-07T10:30:12.686Z,47.48
2019-05-07T10:32:42.079Z,46.08
2019-05-07T10:35:12.560Z,46.62
2019-05-07T10:37:42.308Z,44.51
2019-05-07T10:40:12.257Z,44.00
2019-05-07T10:42:42.775Z,43.06
2019-05-07T10:45:14.838Z,44.18
2019-05-07T10:47:53.597Z,41.20
2019-05-07T10:50:35.343Z,44.11
2019-05-07T10:52:53.984Z,44.32
2019-05-07T10:55:22.389Z,46.49
2019-05-07T10:57:52.880Z,47.88
2019-05-07T11:00:24.075Z,43.17
2019-05-07T11:02:52.298Z,42.35
2019-05-07T11:05:21.984Z,43.31
2019-05-07T11:07:50.276Z,45.22
2019-05-07T11:10:18.926Z,46.90
2019-05-07T11:12:47.119Z,41.48
2019-05-07T11:15:15.637Z,42.37
2019-05-07T11:17:48.180Z,40.99
2019-05-07T11:20:16.633Z,38.85
2019-05-07T11:22:44.827Z,39.98
2019-05-07T11:25:13.006Z,41.40
2019-05-07T11:27:42.124Z,40.08
2019-05-07T11:30:11.995Z,39.85
2019-05-07T11:32:40.166Z,42.94
2019-05-07T11:35:08.675Z,39.93
2019-05-07T11:37:36.867Z,40.03
2019-05-07T11:40:05.991Z,41.51
2019-05-07T11:42:52.113Z,41.86
2019-05-07T11:45:22.728Z,41.11
2019-05-07T11:47:51.461Z,41.71
2019-05-07T11:50:22.596Z,43.13
2019-05-07T11:52:52.527Z,39.15
2019-05-07T11:55:22.397Z,41.08
2019-05-07T11:57:51.847Z,42.08
2019-05-07T12:00:37.125Z,40.53
2019-05-07T12:03:05.488Z,39.58
2019-05-07T12:05:33.676Z,39.80
2019-05-07T12:08:02.369Z,36.66
2019-05-07T12:10:32.582Z,39.33
2019-05-07T12:13:02.387Z,40.81
2019-05-07T12:15:32.480Z,40.73
2019-05-07T12:18:02.897Z,38.87
2019-05-07T12:20:32.391Z,40.10
2019-05-07T12:23:02.795Z,39.20
2019-05-07T12:25:32.085Z,40.78
2019-05-07T12:28:02.520Z,40.11
2019-05-07T12:30:44.481Z,36.38
2019-05-07T12:33:32.458Z,38.86
2019-05-07T12:36:01.973Z,39.33
2019-05-07T12:38:32.252Z,40.28
2019-05-07T12:41:02.443Z,35.71
2019-05-07T12:43:31.881Z,37.74
2019-05-07T12:46:00.212Z,37.98
2019-05-07T12:48:28.403Z,37.87
2019-05-07T12:50:56.598Z,37.15
2019-05-07T12:53:29.193Z,38.03
2019-05-07T12:55:59.036Z,38.05
2019-05-07T12:58:27.219Z,37.95
2019-05-07T13:00:59.961Z,35.60
2019-05-07T13:03:33.035Z,43.66
2019-05-07T13:06:02.547Z,37.39
2019-05-07T13:08:32.770Z,36.85
2019-05-07T13:11:03.116Z,39.09
2019-05-07T13:13:32.027Z,38.17
2019-05-07T13:16:02.744Z,37.29
2019-05-07T13:18:30.320Z,34.89
2019-05-07T13:20:58.498Z,38.54
2019-05-07T13:23:26.693Z,39.34
2019-05-07T13:25:55.218Z,38.67
2019-05-07T13:28:23.699Z,40.69
2019-05-07T13:30:52.648Z,38.41
2019-05-07T13:33:22.780Z,35.79
2019-05-07T13:35:52.209Z,38.15
2019-05-07T13:38:38.827Z,36.67
2019-05-07T13:41:12.727Z,36.82
2019-05-07T13:43:58.994Z,37.18
2019-05-07T13:46:28.079Z,38.11
2019-05-07T13:48:56.545Z,38.97
2019-05-07T13:51:24.694Z,38.78
2019-05-07T13:53:53.161Z,39.45
2019-05-07T13:56:22.010Z,38.41
2019-05-07T13:58:52.204Z,38.53
2019-05-07T14:01:24.622Z,39.02
2019-05-07T14:03:52.818Z,37.93
2019-05-07T14:06:39.833Z,37.20
2019-05-07T14:09:14.185Z,38.30
2019-05-07T14:11:42.443Z,36.75
2019-05-07T14:14:12.289Z,38.35
2019-05-07T14:16:44.677Z,40.07
2019-05-07T14:19:12.792Z,37.46
2019-05-07T14:21:42.184Z,37.28
2019-05-07T14:24:12.300Z,38.43
2019-05-07T14:26:42.214Z,38.69
2019-05-07T14:29:10.608Z,38.34
2019-05-07T14:31:38.795Z,37.00
2019-05-07T14:34:08.632Z,38.34
2019-05-07T14:36:44.208Z,37.32
2019-05-07T14:39:12.400Z,38.91
2019-05-07T14:41:42.631Z,40.49
2019-05-07T14:44:12.468Z,37.45
2019-05-07T14:46:50.280Z,40.59
2019-05-07T14:49:12.057Z,37.61
2019-05-07T14:51:40.326Z,36.00
2019-05-07T14:54:08.524Z,37.48
2019-05-07T14:56:36.713Z,37.20
2019-05-07T14:59:04.911Z,38.07
2019-05-07T15:01:33.977Z,38.74
2019-05-07T15:04:02.338Z,38.78
2019-05-07T15:06:32.398Z,36.74
2019-05-07T15:09:00.433Z,35.53
2019-05-07T15:11:28.639Z,37.00
2019-05-07T15:13:56.816Z,37.65
2019-05-07T15:16:25.037Z,35.12
2019-05-07T15:18:54.689Z,38.38
2019-05-07T15:21:23.268Z,35.06
2019-05-07T15:23:53.011Z,36.27
2019-05-07T15:26:22.064Z,36.69
2019-05-07T15:28:52.403Z,35.68
2019-05-07T15:31:22.236Z,37.62
2019-05-07T15:33:52.295Z,38.77
2019-05-07T15:36:20.919Z,35.81
2019-05-07T15:38:49.400Z,35.85
2019-05-07T15:41:17.897Z,35.42
2019-05-07T15:43:46.354Z,38.08
2019-05-07T15:46:14.546Z,35.63
2019-05-07T15:48:42.730Z,34.39
2019-05-07T15:51:11.891Z,36.39
2019-05-07T15:53:44.819Z,34.59
2019-05-07T15:56:13.024Z,34.28
2019-05-07T15:58:42.565Z,31.96
2019-05-07T16:01:12.843Z,33.27
2019-05-07T16:03:43.115Z,33.71
2019-05-07T16:06:12.635Z,32.48
2019-05-07T16:08:49.147Z,34.67
2019-05-07T16:11:17.484Z,32.92
2019-05-07T16:13:47.378Z,33.46
2019-05-07T16:16:15.578Z,34.87
2019-05-07T16:19:03.157Z,33.69
2019-05-07T16:21:32.496Z,33.26
2019-05-07T16:24:00.902Z,34.11
2019-05-07T16:26:29.104Z,32.90
2019-05-07T16:28:57.281Z,30.24
2019-05-07T16:31:25.811Z,33.13
2019-05-07T16:33:53.992Z,34.03
2019-05-07T16:36:22.191Z,35.47
2019-05-07T16:38:52.537Z,36.52
2019-05-07T16:41:22.318Z,33.19
2019-05-07T16:43:52.423Z,35.42
2019-05-07T16:46:22.399Z,34.12
2019-05-07T16:48:50.758Z,32.81
2019-05-07T16:51:19.072Z,34.54
2019-05-07T16:53:47.499Z,36.32
2019-05-07T16:56:15.695Z,34.20
2019-05-07T16:58:45.525Z,37.50
2019-05-07T17:01:15.189Z,39.24
2019-05-07T17:03:45.761Z,41.01
2019-05-07T17:06:14.325Z,37.67
2019-05-07T17:08:44.185Z,37.16
2019-05-07T17:11:12.396Z,35.76
2019-05-07T17:13:42.393Z,35.50
2019-05-07T17:16:12.330Z,35.63
2019-05-07T17:18:40.748Z,35.55
2019-05-07T17:21:08.925Z,35.36
2019-05-07T17:23:44.001Z,35.07
2019-05-07T17:26:07.083Z,36.62
2019-05-07T17:28:35.645Z,36.35
2019-05-07T17:31:03.823Z,39.32
2019-05-07T17:33:32.154Z,37.56
2019-05-07T17:36:02.299Z,37.84
2019-05-07T17:38:32.097Z,38.05
2019-05-07T17:41:10.865Z,40.60
2019-05-07T17:43:32.336Z,40.12
2019-05-07T17:46:00.366Z,41.36
2019-05-07T17:48:28.564Z,40.68
2019-05-07T17:51:07.753Z,42.50
2019-05-07T17:53:35.958Z,43.37
2019-05-07T17:56:04.401Z,47.78
2019-05-07T17:58:32.871Z,51.26
2019-05-07T18:01:02.835Z,51.71
2019-05-07T18:03:35.007Z,51.18
2019-05-07T18:06:03.190Z,53.93
2019-05-07T18:08:32.462Z,53.73
2019-05-07T18:11:02.282Z,56.46
2019-05-07T18:13:32.520Z,57.02
2019-05-07T18:16:03.136Z,59.61
2019-05-07T18:18:32.727Z,60.60
2019-05-07T18:21:02.223Z,61.49
2019-05-07T18:23:32.064Z,61.75
2019-05-07T18:26:00.581Z,61.64
2019-05-07T18:28:29.606Z,59.60
2019-05-07T18:30:58.423Z,62.11
2019-05-07T18:33:28.257Z,63.60
2019-05-07T18:35:56.738Z,63.79
2019-05-07T18:38:25.199Z,63.27
2019-05-07T18:40:53.679Z,58.59
2019-05-07T18:43:22.629Z,58.13
2019-05-07T18:45:51.722Z,59.52
2019-05-07T18:48:22.267Z,61.92
2019-05-07T18:50:52.150Z,63.16
2019-05-07T18:53:20.259Z,63.38
2019-05-07T18:55:48.441Z,62.87
2019-05-07T18:58:16.626Z,64.40
2019-05-07T19:00:51.799Z,64.87
2019-05-07T19:03:19.412Z,65.66
2019-05-07T19:05:47.590Z,66.40
2019-05-07T19:08:15.781Z,67.56
2019-05-07T19:10:43.965Z,68.17
2019-05-07T19:13:12.426Z,67.00
2019-05-07T19:15:42.037Z,66.60
2019-05-07T19:18:12.044Z,66.29
2019-05-07T19:20:42.164Z,66.76
2019-05-07T19:23:10.241Z,66.32
2019-05-07T19:25:38.436Z,68.54
2019-05-07T19:28:06.670Z,68.94
2019-05-07T19:30:34.906Z,68.27
2019-05-07T19:33:03.098Z,68.83
2019-05-07T19:35:32.795Z,67.09
2019-05-07T19:38:02.871Z,67.79
2019-05-07T19:40:32.509Z,68.28
2019-05-07T19:43:02.828Z,70.47
2019-05-07T19:45:30.833Z,70.19
2019-05-07T19:47:59.366Z,70.58
2019-05-07T19:50:27.884Z,71.45
2019-05-07T19:52:56.155Z,72.42
2019-05-07T19:55:24.672Z,72.49
2019-05-07T19:57:54.668Z,71.46
2019-05-07T20:00:25.003Z,72.07
2019-05-07T20:02:55.449Z,73.13
2019-05-07T20:05:23.651Z,72.24
2019-05-07T20:07:55.601Z,72.95
2019-05-07T20:10:23.887Z,74.28
2019-05-07T20:12:52.279Z,74.05
2019-05-07T20:15:22.323Z,75.49
2019-05-07T20:17:52.600Z,75.95
2019-05-07T20:20:22.196Z,75.59
2019-05-07T20:22:51.814Z,75.93
2019-05-07T20:25:22.403Z,76.08
2019-05-07T20:27:52.568Z,76.89
2019-05-07T20:30:22.748Z,77.33
2019-05-07T20:32:52.273Z,77.26
2019-05-07T20:35:20.906Z,77.67
2019-05-07T20:37:49.115Z,76.60
2019-05-07T20:40:17.309Z,76.31
2019-05-07T20:42:45.489Z,76.93
2019-05-07T20:45:13.667Z,77.59
2019-05-07T20:47:42.254Z,77.99
2019-05-07T20:50:12.538Z,78.42
2019-05-07T20:52:41.858Z,77.83
2019-05-07T20:55:28.194Z,77.41
2019-05-07T20:57:51.667Z,77.16
2019-05-07T21:00:27.225Z,77.29
2019-05-07T21:03:13.538Z,77.76
2019-05-07T21:05:42.302Z,77.62
2019-05-07T21:08:11.942Z,77.26
2019-05-07T21:10:42.628Z,77.72
2019-05-07T21:13:26.984Z,78.30
2019-05-07T21:15:41.862Z,77.90
2019-05-07T21:18:12.362Z,78.19
2019-05-07T21:20:42.069Z,77.83
2019-05-07T21:23:12.259Z,78.61
2019-05-07T21:25:45.491Z,78.44
2019-05-07T21:28:12.210Z,78.45
2019-05-07T21:30:42.506Z,78.42
2019-05-07T21:33:11.995Z,79.45
2019-05-07T21:35:42.728Z,78.41
2019-05-07T21:38:12.502Z,78.57
2019-05-07T21:40:42.679Z,78.84
2019-05-07T21:43:12.032Z,78.87
2019-05-07T21:45:42.175Z,78.32
2019-05-07T21:48:10.130Z,78.32
2019-05-07T21:50:38.318Z,78.39
2019-05-07T21:53:08.468Z,78.44
2019-05-07T21:55:41.784Z,78.20
2019-05-07T21:58:16.051Z,77.90
2019-05-07T22:01:02.069Z,78.19
2019-05-07T22:03:34.723Z,78.13
2019-05-07T22:06:02.475Z,78.42
2019-05-07T22:08:32.423Z,79.01
2019-05-07T22:11:02.572Z,79.05
2019-05-07T22:13:32.758Z,79.12
2019-05-07T22:16:02.531Z,80.15
2019-05-07T22:18:32.031Z,80.65
2019-05-07T22:21:02.723Z,80.82
2019-05-07T22:23:32.313Z,80.29
2019-05-07T22:26:18.577Z,80.83
2019-05-07T22:28:32.044Z,80.61
2019-05-07T22:31:14.352Z,80.96
2019-05-07T22:33:46.890Z,81.38
2019-05-07T22:36:15.086Z,82.02
2019-05-07T22:38:43.259Z,81.41
2019-05-07T22:41:12.865Z,81.54
2019-05-07T22:43:42.495Z,81.79
2019-05-07T22:46:12.453Z,81.29
2019-05-07T22:48:41.864Z,81.61
2019-05-07T22:51:12.202Z,81.73
2019-05-07T22:53:40.423Z,81.12
2019-05-07T22:56:08.896Z,80.97
2019-05-07T22:58:44.436Z,81.11
2019-05-07T23:01:14.248Z,81.29
2019-05-07T23:03:43.085Z,81.15
2019-05-07T23:06:12.293Z,81.27
2019-05-07T23:08:42.452Z,81.85
2019-05-07T23:11:12.217Z,82.64
2019-05-07T23:13:42.606Z,83.34
2019-05-07T23:16:12.335Z,82.22
2019-05-07T23:18:42.776Z,82.69
2019-05-07T23:21:10.815Z,82.18
2019-05-07T23:23:39.000Z,82.04
2019-05-07T23:26:07.177Z,82.85
2019-05-07T23:28:35.388Z,83.64
2019-05-07T23:31:03.553Z,83.79
2019-05-07T23:33:32.251Z,83.93
2019-05-07T23:36:02.190Z,83.69
2019-05-07T23:38:31.949Z,84.02
2019-05-07T23:41:17.011Z,84.23
2019-05-07T23:43:46.842Z,84.95
2019-05-07T23:46:15.013Z,85.15
2019-05-07T23:48:43.208Z,84.17
2019-05-07T23:51:12.606Z,84.64
2019-05-07T23:53:44.195Z,85.35
2019-05-07T23:56:12.989Z,85.85
2019-05-07T23:58:41.955Z,85.84
